Fyrbyggaren — SDJP — position and weather

sailwx.info

Track history (hours):
 
Tides and Currents Weather Stations Pressure Air Temp Water Temp Dewpoint Dewpoint Depression Visibility Wind Speed Wind Dir Waves Ship Positions

Fyrbyggaren

Last reported at 2017-Nov-19 04:58 UTC. Time now 2017-Nov-19 05:01 UTC.
Position N 58°40' E 017°08'.

Length 42 m.

Type: Pollution control. MMSI: 265289000.

Date/timePositionNaut miles runAvg speedWind from/ knotsBaromVisibWave heightAir tempDewpointWater temp
2017-Nov-19 04:58N 58°40' E 017°08'0 0.0
2017-Nov-19 04:28N 58°40' E 017°08'0 0.0
2017-Nov-19 03:55N 58°40' E 017°08'0 0.0
2017-Nov-19 03:28N 58°40' E 017°08'0 0.0
2017-Nov-19 02:58N 58°40' E 017°08'0 0.0
2017-Nov-19 02:28N 58°40' E 017°08'0 0.0
2017-Nov-19 01:58N 58°40' E 017°08'0 0.0
2017-Nov-19 01:28N 58°40' E 017°08'0 0.0
2017-Nov-19 00:58N 58°40' E 017°08'0 0.0
2017-Nov-19 00:28N 58°40' E 017°08'0 0.0
2017-Nov-18 23:58N 58°40' E 017°08'0 0.0
2017-Nov-18 23:28N 58°40' E 017°08'0 0.0
2017-Nov-18 22:58N 58°40' E 017°08'0 0.0
2017-Nov-18 22:28N 58°40' E 017°08'0 0.0
2017-Nov-18 21:46N 58°40' E 017°08'0 0.0
2017-Nov-18 21:28N 58°40' E 017°08'0 0.0
2017-Nov-18 20:58N 58°40' E 017°08'0 0.0
2017-Nov-18 20:28N 58°40' E 017°08'0 0.0
2017-Nov-18 19:58N 58°40' E 017°08'0 0.0
2017-Nov-18 19:28N 58°40' E 017°08'0 0.0
2017-Nov-18 18:58N 58°40' E 017°08'0 0.0
2017-Nov-18 18:28N 58°40' E 017°08'0 0.0
2017-Nov-18 17:58N 58°40' E 017°08'0 0.0
2017-Nov-18 17:28N 58°40' E 017°08'0 0.4
2017-Nov-18 17:00N 58°40' E 017°07'5 9.2
2017-Nov-18 16:30N 58°37' E 017°14'6 9.9
2017-Nov-18 15:55N 58°38' E 017°25'410.0
2017-Nov-18 15:29N 58°43' E 017°27'7 6.7
2017-Nov-18 14:29N 58°48' E 017°35'4 8.8
2017-Nov-18 14:00N 58°48' E 017°43'510.6
2017-Nov-18 13:30N 58°53' E 017°43'510.8
2017-Nov-18 13:00N 58°59' E 017°43'15 7.0
2017-Nov-18 10:55N 59°13' E 017°37'3 6.9
2017-Nov-18 10:30N 59°16' E 017°35'4 7.2
2017-Nov-18 09:59N 59°16' E 017°42'510.0
2017-Nov-18 09:30N 59°16' E 017°51'510.0
2017-Nov-18 09:01N 59°19' E 017°59'3 5.5
2017-Nov-18 08:30N 59°18' E 018°05'1 2.8
2017-Nov-18 08:00N 59°19' E 018°06'0 0.0
2017-Nov-18 07:30N 59°19' E 018°06'0 0.0
2017-Nov-18 06:58N 59°19' E 018°06'0 0.0
2017-Nov-18 06:28N 59°19' E 018°06'0 0.0
2017-Nov-18 05:58N 59°19' E 018°06'0 0.0
2017-Nov-18 05:28N 59°19' E 018°06'0 0.0
2017-Nov-18 04:56N 59°19' E 018°06'0 0.0
2017-Nov-18 04:26N 59°19' E 018°06'0 0.0
2017-Nov-18 03:58N 59°19' E 018°06'0 0.0
2017-Nov-18 03:28N 59°19' E 018°06'0 0.0
2017-Nov-18 02:58N 59°19' E 018°06'0 0.0
2017-Nov-18 02:28N 59°19' E 018°06'0 0.0
2017-Nov-18 01:58N 59°19' E 018°06'0 0.0
2017-Nov-18 01:28N 59°19' E 018°06'0 0.0
2017-Nov-18 00:58N 59°19' E 018°06'0 0.0
2017-Nov-18 00:28N 59°19' E 018°06'0 0.0
2017-Nov-17 23:58N 59°19' E 018°06'0 0.0
2017-Nov-17 23:28N 59°19' E 018°06'0 0.0
2017-Nov-17 22:56N 59°19' E 018°06'0 0.0
2017-Nov-17 22:28N 59°19' E 018°06'0 0.0
2017-Nov-17 21:58N 59°19' E 018°06'0 0.0
2017-Nov-17 21:28N 59°19' E 018°06'0 0.0
2017-Nov-17 20:58N 59°19' E 018°06'0 0.0
2017-Nov-17 20:26N 59°19' E 018°06'0 0.0
2017-Nov-17 19:56N 59°19' E 018°06'0 0.0
2017-Nov-17 19:25N 59°19' E 018°06'0 0.0
2017-Nov-17 18:56N 59°19' E 018°06'0 0.0
2017-Nov-17 18:26N 59°19' E 018°06'0 0.0
2017-Nov-17 17:50N 59°19' E 018°06'0 0.0
2017-Nov-17 17:26N 59°19' E 018°06'0 0.0
2017-Nov-17 16:56N 59°19' E 018°06'0 0.0
2017-Nov-17 16:26N 59°19' E 018°06'0 0.0
2017-Nov-17 15:58N 59°19' E 018°06'0 0.0
2017-Nov-17 15:28N 59°19' E 018°06'0 0.0
2017-Nov-17 14:58N 59°19' E 018°06'0 0.0
2017-Nov-17 14:28N 59°19' E 018°06'0 0.0
2017-Nov-17 13:58N 59°19' E 018°06'0 0.0
2017-Nov-17 13:26N 59°19' E 018°06'0 0.0
2017-Nov-17 12:58N 59°19' E 018°06'0 0.0
2017-Nov-17 12:28N 59°19' E 018°06'0 0.0
2017-Nov-17 11:58N 59°19' E 018°06'0 0.0
2017-Nov-17 11:28N 59°19' E 018°06'0 0.0
2017-Nov-17 10:58N 59°19' E 018°06'0 0.0
2017-Nov-17 10:28N 59°19' E 018°06'0 0.0
2017-Nov-17 09:58N 59°19' E 018°06'0 0.0
2017-Nov-17 09:28N 59°19' E 018°06'0 0.0
2017-Nov-17 08:58N 59°19' E 018°06'0 0.0
2017-Nov-17 08:28N 59°19' E 018°06'0 0.0
2017-Nov-17 07:56N 59°19' E 018°06'0 0.0
2017-Nov-17 07:28N 59°19' E 018°06'0 0.0
2017-Nov-17 06:58N 59°19' E 018°06'0 0.0
2017-Nov-17 06:28N 59°19' E 018°06'0 0.0
2017-Nov-17 05:58N 59°19' E 018°06'0 0.0
2017-Nov-17 05:28N 59°19' E 018°06'0 0.0
2017-Nov-17 04:58N 59°19' E 018°06'0 0.0
2017-Nov-17 04:28N 59°19' E 018°06'0 0.0
2017-Nov-17 03:58N 59°19' E 018°06'0 0.0
2017-Nov-17 03:28N 59°19' E 018°06'0 0.0
2017-Nov-17 02:58N 59°19' E 018°06'0 0.0
2017-Nov-17 02:25N 59°19' E 018°06'0 0.0
2017-Nov-17 01:58N 59°19' E 018°06'0 0.0
2017-Nov-17 01:28N 59°19' E 018°06'0 0.0
2017-Nov-17 00:56N 59°19' E 018°06'0 0.0
2017-Nov-17 00:28N 59°19' E 018°06'0 0.0
2017-Nov-16 23:58N 59°19' E 018°06'0 0.0
2017-Nov-16 23:26N 59°19' E 018°06'0 0.0
2017-Nov-16 22:58N 59°19' E 018°06'0 0.0
2017-Nov-16 22:28N 59°19' E 018°06'0 0.0
2017-Nov-16 21:58N 59°19' E 018°06'0 0.0
2017-Nov-16 21:28N 59°19' E 018°06'0 0.0
2017-Nov-16 20:56N 59°19' E 018°06'0 0.0
2017-Nov-16 20:28N 59°19' E 018°06'0 0.0
2017-Nov-16 19:55N 59°19' E 018°06'0 0.0
2017-Nov-16 19:26N 59°19' E 018°06'0 0.0
2017-Nov-16 18:56N 59°19' E 018°06'0 0.0
2017-Nov-16 18:25N 59°19' E 018°06'0 0.0
2017-Nov-16 17:55N 59°19' E 018°06'0 0.0
2017-Nov-16 17:26N 59°19' E 018°06'0 0.0
2017-Nov-16 16:55N 59°19' E 018°06'0 0.0
2017-Nov-16 16:25N 59°19' E 018°06'0 0.0
2017-Nov-16 15:55N 59°19' E 018°06'0 0.0
2017-Nov-16 15:28N 59°19' E 018°06'0 0.0
2017-Nov-16 14:58N 59°19' E 018°06'0 0.0
2017-Nov-16 14:28N 59°19' E 018°06'0 0.0
2017-Nov-16 13:49N 59°19' E 018°06'0 0.0
2017-Nov-16 13:20N 59°19' E 018°06'0 0.0
2017-Nov-16 12:56N 59°19' E 018°06'0 0.0
2017-Nov-16 12:25N 59°19' E 018°06'0 0.0
2017-Nov-16 11:55N 59°19' E 018°06'0 0.0
2017-Nov-16 11:20N 59°19' E 018°06'0 0.0
2017-Nov-16 10:50N 59°19' E 018°06'0 0.0
2017-Nov-16 10:26N 59°19' E 018°06'0 0.0
2017-Nov-16 09:49N 59°19' E 018°06'0 0.0
2017-Nov-16 09:07N 59°19' E 018°06'0 0.0
2017-Nov-16 08:55N 59°19' E 018°06'0 0.0
2017-Nov-16 08:26N 59°19' E 018°06'0 0.0
2017-Nov-16 07:49N 59°19' E 018°06'0 0.0
2017-Nov-16 07:25N 59°19' E 018°06'0 0.0
2017-Nov-16 06:55N 59°19' E 018°06'0 0.0
2017-Nov-16 06:25N 59°19' E 018°06'0 0.0
2017-Nov-16 05:55N 59°19' E 018°06'0 0.0
2017-Nov-16 05:19N 59°19' E 018°06'0 0.0
2017-Nov-16 04:55N 59°19' E 018°06'0 0.0
2017-Nov-16 04:26N 59°19' E 018°06'0 0.0
2017-Nov-16 03:55N 59°19' E 018°06'0 0.0
2017-Nov-16 03:25N 59°19' E 018°06'0 0.0
2017-Nov-16 02:49N 59°19' E 018°06'0 0.0
2017-Nov-16 02:25N 59°19' E 018°06'0 0.0
2017-Nov-16 01:56N 59°19' E 018°06'0 0.0
2017-Nov-16 01:26N 59°19' E 018°06'0 0.0
2017-Nov-16 00:49N 59°19' E 018°06'0 0.0
2017-Nov-16 00:26N 59°19' E 018°06'0 0.0
2017-Nov-15 23:56N 59°19' E 018°06'0 0.0
2017-Nov-15 23:25N 59°19' E 018°06'0 0.0
2017-Nov-15 22:56N 59°19' E 018°06'0 0.0
2017-Nov-15 22:25N 59°19' E 018°06'0 0.0
2017-Nov-15 21:55N 59°19' E 018°06'0 0.0
2017-Nov-15 21:25N 59°19' E 018°06'0 0.0
2017-Nov-15 20:55N 59°19' E 018°06'0 0.0
2017-Nov-15 20:25N 59°19' E 018°06'0 0.0
2017-Nov-15 19:55N 59°19' E 018°06'0 0.0
2017-Nov-15 19:25N 59°19' E 018°06'0 0.0
2017-Nov-15 18:55N 59°19' E 018°06'0 0.0
2017-Nov-15 18:25N 59°19' E 018°06'0 0.0
2017-Nov-15 17:49N 59°19' E 018°06'0 0.0
2017-Nov-15 17:25N 59°19' E 018°06'0 0.0
2017-Nov-15 16:49N 59°19' E 018°06'0 0.0
2017-Nov-15 16:26N 59°19' E 018°06'0 0.0
2017-Nov-15 15:56N 59°19' E 018°06'0 0.0
2017-Nov-15 15:25N 59°19' E 018°06'0 0.0
2017-Nov-15 14:55N 59°19' E 018°06'0 0.0
2017-Nov-15 14:26N 59°19' E 018°06'0 0.0
2017-Nov-15 13:55N 59°19' E 018°06'0 0.0
2017-Nov-15 13:25N 59°19' E 018°06'0 0.0
2017-Nov-15 12:56N 59°19' E 018°06'0 0.0
2017-Nov-15 12:19N 59°19' E 018°06'0 0.0
2017-Nov-15 11:49N 59°19' E 018°06'0 0.0
2017-Nov-15 11:26N 59°19' E 018°06'0 0.0
2017-Nov-15 10:55N 59°19' E 018°06'0 0.0
2017-Nov-15 10:25N 59°19' E 018°06'0 0.0
2017-Nov-15 09:55N 59°19' E 018°06'0 0.0
2017-Nov-15 09:26N 59°19' E 018°06'0 0.0
2017-Nov-15 08:55N 59°19' E 018°06'0 0.0
2017-Nov-15 08:28N 59°19' E 018°06'0 0.0
2017-Nov-15 07:58N 59°19' E 018°06'0 0.0
2017-Nov-15 07:28N 59°19' E 018°06'0 0.0
2017-Nov-15 06:58N 59°19' E 018°06'0 0.0
2017-Nov-15 06:28N 59°19' E 018°06'0 0.0
2017-Nov-15 05:58N 59°19' E 018°06'0 0.0
2017-Nov-15 05:28N 59°19' E 018°06'0 0.0
2017-Nov-15 04:58N 59°19' E 018°06'0 0.0
2017-Nov-15 04:28N 59°19' E 018°06'0 0.0
2017-Nov-15 03:58N 59°19' E 018°06'0 0.0
2017-Nov-15 03:28N 59°19' E 018°06'0 0.0
2017-Nov-15 02:55N 59°19' E 018°06'0 0.0
2017-Nov-15 02:28N 59°19' E 018°06'0 0.0
2017-Nov-15 01:55N 59°19' E 018°06'0 0.0
2017-Nov-15 01:28N 59°19' E 018°06'0 0.0
2017-Nov-15 00:58N 59°19' E 018°06'0 0.0
2017-Nov-15 00:28N 59°19' E 018°06'0 0.0
2017-Nov-14 23:58N 59°19' E 018°06'0 0.0
2017-Nov-14 23:28N 59°19' E 018°06'0 0.0
2017-Nov-14 22:58N 59°19' E 018°06'0 0.0
2017-Nov-14 22:28N 59°19' E 018°06'0 0.0
2017-Nov-14 21:58N 59°19' E 018°06'0 0.0
2017-Nov-14 21:28N 59°19' E 018°06'0 0.0
2017-Nov-14 20:58N 59°19' E 018°06'0 0.0
2017-Nov-14 20:28N 59°19' E 018°06'0 0.0
2017-Nov-14 19:58N 59°19' E 018°06'0 0.0
2017-Nov-14 19:25N 59°19' E 018°06'0 0.0
2017-Nov-14 18:55N 59°19' E 018°06'0 0.0
2017-Nov-14 18:25N 59°19' E 018°06'0 0.0
2017-Nov-14 17:55N 59°19' E 018°06'0 0.0
2017-Nov-14 17:25N 59°19' E 018°06'0 0.0
2017-Nov-14 16:49N 59°19' E 018°06'0 0.0
2017-Nov-14 16:26N 59°19' E 018°06'0 0.0
2017-Nov-14 15:58N 59°19' E 018°06'0 0.0
2017-Nov-14 15:26N 59°19' E 018°06'0 0.0
2017-Nov-14 14:58N 59°19' E 018°06'0 0.0
2017-Nov-14 14:28N 59°19' E 018°06'0 0.0
2017-Nov-14 13:58N 59°19' E 018°06'0 0.0
2017-Nov-14 13:28N 59°19' E 018°06'0 0.0
2017-Nov-14 12:58N 59°19' E 018°06'0 0.0
2017-Nov-14 12:28N 59°19' E 018°06'0 0.0
2017-Nov-14 11:58N 59°19' E 018°06'0 0.0
2017-Nov-14 11:28N 59°19' E 018°06'0 0.0
2017-Nov-14 10:58N 59°19' E 018°06'0 0.0
2017-Nov-14 10:28N 59°19' E 018°06'0 0.0
2017-Nov-14 09:58N 59°19' E 018°06'0 0.0
2017-Nov-14 09:28N 59°19' E 018°06'0 0.0
2017-Nov-14 08:58N 59°19' E 018°06'0 0.0
2017-Nov-14 08:28N 59°19' E 018°06'0 0.0
2017-Nov-14 07:58N 59°19' E 018°06'0 0.0
2017-Nov-14 07:28N 59°19' E 018°06'0 0.0
2017-Nov-14 06:58N 59°19' E 018°06'0 0.0
2017-Nov-14 06:25N 59°19' E 018°06'0 0.0
2017-Nov-14 05:58N 59°19' E 018°06'0 0.0
2017-Nov-14 05:28N 59°19' E 018°06'0 0.0
2017-Nov-14 04:58N 59°19' E 018°06'0 0.0
2017-Nov-14 04:28N 59°19' E 018°06'0 0.0
2017-Nov-14 03:58N 59°19' E 018°06'0 0.0
2017-Nov-14 03:28N 59°19' E 018°06'0 0.0
2017-Nov-14 02:58N 59°19' E 018°06'0 0.0
2017-Nov-14 02:28N 59°19' E 018°06'0 0.0
2017-Nov-14 01:58N 59°19' E 018°06'0 0.0
2017-Nov-14 01:25N 59°19' E 018°06'0 0.0
2017-Nov-14 00:58N 59°19' E 018°06'0 0.0
2017-Nov-14 00:28N 59°19' E 018°06'0 0.0
2017-Nov-13 23:58N 59°19' E 018°06'0 0.0
2017-Nov-13 23:28N 59°19' E 018°06'0 0.0
2017-Nov-13 22:58N 59°19' E 018°06'0 0.0
2017-Nov-13 22:28N 59°19' E 018°06'0 0.0
2017-Nov-13 21:58N 59°19' E 018°06'0 0.0
2017-Nov-13 01:58N 59°19' E 018°06'0 0.0
2017-Nov-13 01:28N 59°19' E 018°06'0 0.0
2017-Nov-13 00:55N 59°19' E 018°06'0 0.0
2017-Nov-13 00:28N 59°19' E 018°06'0 0.0
2017-Nov-12 23:58N 59°19' E 018°06'0 0.0
2017-Nov-12 23:28N 59°19' E 018°06'0 0.0
2017-Nov-12 22:58N 59°19' E 018°06'0 0.0
2017-Nov-12 22:28N 59°19' E 018°06'0 0.0
2017-Nov-12 21:52N 59°19' E 018°06'0 0.0
2017-Nov-12 21:28N 59°19' E 018°06'0 0.0
2017-Nov-12 20:58N 59°19' E 018°06'0 0.0
2017-Nov-12 20:28N 59°19' E 018°06'0 0.0
2017-Nov-12 19:55N 59°19' E 018°06'0 0.0
2017-Nov-12 19:19N 59°19' E 018°06'0 0.0
2017-Nov-12 18:55N 59°19' E 018°06'0 0.0
2017-Nov-12 18:25N 59°19' E 018°06'0 0.0
2017-Nov-12 17:55N 59°19' E 018°06'0 0.0
2017-Nov-12 17:19N 59°19' E 018°06'0 0.0
2017-Nov-12 16:37N 59°19' E 018°06'0 0.0
2017-Nov-12 16:25N 59°19' E 018°06'0 0.0
2017-Nov-12 15:55N 59°19' E 018°06'0 0.0
2017-Nov-12 15:25N 59°19' E 018°06'0 0.0
2017-Nov-12 14:58N 59°19' E 018°06'0 0.0
2017-Nov-12 14:28N 59°19' E 018°06'0 0.0
2017-Nov-12 13:58N 59°19' E 018°06'0 0.0
2017-Nov-12 13:22N 59°19' E 018°06'0 0.0
2017-Nov-12 12:58N 59°19' E 018°06'0 0.0
2017-Nov-12 12:28N 59°19' E 018°06'0 0.0
2017-Nov-12 11:58N 59°19' E 018°06'0 0.0
2017-Nov-12 11:28N 59°19' E 018°06'0 0.0
2017-Nov-12 10:55N 59°19' E 018°06'0 0.0
2017-Nov-12 10:28N 59°19' E 018°06'0 0.0
2017-Nov-12 09:58N 59°19' E 018°06'0 0.0
2017-Nov-12 09:28N 59°19' E 018°06'0 0.0
2017-Nov-12 08:58N 59°19' E 018°06'0 0.0
2017-Nov-12 08:25N 59°19' E 018°06'0 0.0
2017-Nov-12 07:55N 59°19' E 018°06'0 0.0
2017-Nov-12 07:28N 59°19' E 018°06'0 0.0
2017-Nov-12 06:58N 59°19' E 018°06'0 0.0
2017-Nov-12 06:28N 59°19' E 018°06'0 0.0
2017-Nov-12 05:58N 59°19' E 018°06'0 0.0
2017-Nov-12 05:28N 59°19' E 018°06'0 0.0
2017-Nov-12 04:58N 59°19' E 018°06'0 0.0
2017-Nov-12 04:28N 59°19' E 018°06'0 0.0
2017-Nov-12 03:58N 59°19' E 018°06'0 0.0
2017-Nov-12 03:28N 59°19' E 018°06'0 0.0
2017-Nov-12 02:58N 59°19' E 018°06'0 0.0
2017-Nov-12 02:28N 59°19' E 018°06'0 0.0
2017-Nov-12 01:58N 59°19' E 018°06'0 0.0
2017-Nov-12 01:28N 59°19' E 018°06'0 0.0
2017-Nov-12 00:58N 59°19' E 018°06'0 0.0
2017-Nov-12 00:28N 59°19' E 018°06'0 0.0
2017-Nov-11 23:58N 59°19' E 018°06'0 0.0
2017-Nov-11 23:25N 59°19' E 018°06'0 0.0
2017-Nov-11 22:55N 59°19' E 018°06'0 0.0
2017-Nov-11 22:28N 59°19' E 018°06'0 0.0
2017-Nov-11 21:58N 59°19' E 018°06'0 0.0
2017-Nov-11 21:28N 59°19' E 018°06'0 0.0
2017-Nov-11 20:55N 59°19' E 018°06'0 0.0
2017-Nov-11 20:28N 59°19' E 018°06'0 0.0
2017-Nov-11 19:58N 59°19' E 018°06'0 0.0
2017-Nov-11 19:28N 59°19' E 018°06'0 0.0
2017-Nov-11 18:55N 59°19' E 018°06'0 0.0
2017-Nov-11 18:19N 59°19' E 018°06'0 0.0
2017-Nov-11 17:55N 59°19' E 018°06'0 0.0
2017-Nov-11 17:25N 59°19' E 018°06'0 0.0
2017-Nov-11 16:49N 59°19' E 018°06'0 0.0
2017-Nov-11 16:19N 59°19' E 018°06'0 0.0
2017-Nov-11 15:55N 59°19' E 018°06'0 0.0
2017-Nov-11 15:19N 59°19' E 018°06'0 0.0
2017-Nov-11 14:58N 59°19' E 018°06'0 0.0
2017-Nov-11 14:28N 59°19' E 018°06'0 0.0
2017-Nov-11 13:58N 59°19' E 018°06'0 0.0
2017-Nov-11 13:28N 59°19' E 018°06'0 0.0
2017-Nov-11 12:55N 59°19' E 018°06'0 0.0
2017-Nov-11 12:28N 59°19' E 018°06'0 0.0
2017-Nov-11 11:58N 59°19' E 018°06'0 0.0
2017-Nov-11 11:28N 59°19' E 018°06'0 0.0
2017-Nov-11 10:58N 59°19' E 018°06'0 0.0
2017-Nov-11 10:28N 59°19' E 018°06'0 0.0
2017-Nov-11 09:55N 59°19' E 018°06'0 0.0
2017-Nov-11 09:28N 59°19' E 018°06'0 0.0
2017-Nov-11 08:58N 59°19' E 018°06'0 0.0
2017-Nov-11 08:28N 59°19' E 018°06'0 0.0
2017-Nov-11 07:58N 59°19' E 018°06'0 0.0
2017-Nov-11 07:28N 59°19' E 018°06'0 0.0
2017-Nov-11 06:55N 59°19' E 018°06'0 0.0
2017-Nov-11 06:28N 59°19' E 018°06'0 0.0
2017-Nov-11 05:58N 59°19' E 018°06'0 0.0
2017-Nov-11 05:28N 59°19' E 018°06'0 0.0
2017-Nov-11 04:58N 59°19' E 018°06'0 0.0
2017-Nov-11 04:28N 59°19' E 018°06'0 0.0
2017-Nov-11 03:58N 59°19' E 018°06'0 0.0
2017-Nov-11 03:25N 59°19' E 018°06'0 0.0
2017-Nov-11 02:55N 59°19' E 018°06'0 0.0
2017-Nov-11 02:28N 59°19' E 018°06'0 0.0
2017-Nov-11 01:58N 59°19' E 018°06'0 0.0
2017-Nov-11 01:28N 59°19' E 018°06'0 0.0
2017-Nov-11 00:58N 59°19' E 018°06'0 0.0
2017-Nov-11 00:28N 59°19' E 018°06'0 0.0
2017-Nov-10 23:58N 59°19' E 018°06'0 0.0
2017-Nov-10 23:28N 59°19' E 018°06'0 0.0
2017-Nov-10 22:58N 59°19' E 018°06'0 0.0
2017-Nov-10 22:28N 59°19' E 018°06'0 0.0
2017-Nov-10 21:58N 59°19' E 018°06'0 0.0
2017-Nov-10 21:28N 59°19' E 018°06'0 0.0
2017-Nov-10 20:58N 59°19' E 018°06'0 0.0
2017-Nov-10 20:25N 59°19' E 018°06'0 0.0
2017-Nov-10 19:55N 59°19' E 018°06'0 0.0
2017-Nov-10 19:25N 59°19' E 018°06'0 0.0
2017-Nov-10 18:55N 59°19' E 018°06'0 0.0
2017-Nov-10 18:25N 59°19' E 018°06'0 0.0
2017-Nov-10 17:55N 59°19' E 018°06'0 0.0
2017-Nov-10 17:25N 59°19' E 018°06'0 0.0
2017-Nov-10 16:55N 59°19' E 018°06'0 0.0
2017-Nov-10 16:01N 59°19' E 018°06'0 0.0
2017-Nov-10 15:55N 59°19' E 018°06'0 0.0
2017-Nov-10 15:25N 59°19' E 018°06'0 0.0
2017-Nov-10 14:58N 59°19' E 018°06'0 0.0
2017-Nov-10 14:28N 59°19' E 018°06'0 0.0
2017-Nov-10 13:58N 59°19' E 018°06'0 0.0
2017-Nov-10 13:28N 59°19' E 018°06'0 0.0
2017-Nov-10 12:58N 59°19' E 018°06'0 0.0
2017-Nov-10 12:25N 59°19' E 018°06'0 0.0
2017-Nov-10 11:58N 59°19' E 018°06'0 0.0
2017-Nov-10 11:28N 59°19' E 018°06'0 0.0
2017-Nov-10 10:58N 59°19' E 018°06'0 0.0
2017-Nov-10 10:25N 59°19' E 018°06'0 0.0
2017-Nov-10 09:58N 59°19' E 018°06'0 0.0
2017-Nov-10 09:28N 59°19' E 018°06'0 0.0
2017-Nov-10 08:58N 59°19' E 018°06'0 0.0
2017-Nov-10 08:28N 59°19' E 018°06'0 0.0
2017-Nov-10 07:55N 59°19' E 018°06'0 0.0
2017-Nov-10 07:28N 59°19' E 018°06'0 0.0
2017-Nov-10 06:58N 59°19' E 018°06'0 0.0
2017-Nov-10 06:28N 59°19' E 018°06'0 0.0
2017-Nov-10 05:58N 59°19' E 018°06'0 0.0
2017-Nov-10 05:28N 59°19' E 018°06'0 0.0
2017-Nov-10 04:58N 59°19' E 018°06'0 0.0
2017-Nov-10 04:28N 59°19' E 018°06'0 0.0
2017-Nov-10 03:58N 59°19' E 018°06'0 0.0
2017-Nov-10 03:28N 59°19' E 018°06'0 0.0
2017-Nov-10 02:58N 59°19' E 018°06'0 0.0
2017-Nov-10 02:28N 59°19' E 018°06'0 0.0
2017-Nov-10 01:58N 59°19' E 018°06'0 0.0
2017-Nov-10 01:28N 59°19' E 018°06'0 0.0
2017-Nov-10 00:58N 59°19' E 018°06'0 0.0
2017-Nov-10 00:28N 59°19' E 018°06'0 0.0
2017-Nov-09 23:58N 59°19' E 018°06'0 0.0
2017-Nov-09 23:28N 59°19' E 018°06'0 0.0
2017-Nov-09 22:58N 59°19' E 018°06'0 0.0
2017-Nov-09 22:28N 59°19' E 018°06'0 0.0
2017-Nov-09 21:58N 59°19' E 018°06'0 0.0
2017-Nov-09 21:28N 59°19' E 018°06'0 0.0
2017-Nov-09 20:52N 59°19' E 018°06'0 0.0
2017-Nov-09 20:30N 59°19' E 018°06'1 2.2
2017-Nov-09 20:00N 59°18' E 018°05'2 3.9
2017-Nov-09 19:30N 59°19' E 018°02'4 7.9
2017-Nov-09 19:00N 59°18' E 017°54'510.0
2017-Nov-09 18:31N 59°16' E 017°45'5 9.4
2017-Nov-09 17:59N 59°17' E 017°36'510.7
2017-Nov-09 17:30N 59°21' E 017°29'510.5
2017-Nov-09 17:00N 59°26' E 017°24'510.2
2017-Nov-09 16:30N 59°28' E 017°15'4 8.6
2017-Nov-09 16:00N 59°31' E 017°10'510.1
2017-Nov-09 15:29N 59°32' E 016°59'  
Track history (hours):
 
Tides and Currents Weather Stations Pressure Air Temp Water Temp Dewpoint Dewpoint Depression Visibility Wind Speed Wind Dir Waves Ship Positions

Fyrbyggaren

Last reported at 2017-Nov-19 04:58 UTC. Time now 2017-Nov-19 05:01 UTC.
Position N 58°40' E 017°08'.

Length 42 m.

Type: Pollution control. MMSI: 265289000.

Date/timePositionNaut miles runAvg speedWind from/ knotsBaromVisibWave heightAir tempDewpointWater temp
2017-Nov-19 04:58N 58°40' E 017°08'0 0.0
2017-Nov-19 04:28N 58°40' E 017°08'0 0.0
2017-Nov-19 03:55N 58°40' E 017°08'0 0.0
2017-Nov-19 03:28N 58°40' E 017°08'0 0.0
2017-Nov-19 02:58N 58°40' E 017°08'0 0.0
2017-Nov-19 02:28N 58°40' E 017°08'0 0.0
2017-Nov-19 01:58N 58°40' E 017°08'0 0.0
2017-Nov-19 01:28N 58°40' E 017°08'0 0.0
2017-Nov-19 00:58N 58°40' E 017°08'0 0.0
2017-Nov-19 00:28N 58°40' E 017°08'0 0.0
2017-Nov-18 23:58N 58°40' E 017°08'0 0.0
2017-Nov-18 23:28N 58°40' E 017°08'0 0.0
2017-Nov-18 22:58N 58°40' E 017°08'0 0.0
2017-Nov-18 22:28N 58°40' E 017°08'0 0.0
2017-Nov-18 21:46N 58°40' E 017°08'0 0.0
2017-Nov-18 21:28N 58°40' E 017°08'0 0.0
2017-Nov-18 20:58N 58°40' E 017°08'0 0.0
2017-Nov-18 20:28N 58°40' E 017°08'0 0.0
2017-Nov-18 19:58N 58°40' E 017°08'0 0.0
2017-Nov-18 19:28N 58°40' E 017°08'0 0.0
2017-Nov-18 18:58N 58°40' E 017°08'0 0.0
2017-Nov-18 18:28N 58°40' E 017°08'0 0.0
2017-Nov-18 17:58N 58°40' E 017°08'0 0.0
2017-Nov-18 17:28N 58°40' E 017°08'0 0.4
2017-Nov-18 17:00N 58°40' E 017°07'5 9.2
2017-Nov-18 16:30N 58°37' E 017°14'6 9.9
2017-Nov-18 15:55N 58°38' E 017°25'410.0
2017-Nov-18 15:29N 58°43' E 017°27'7 6.7
2017-Nov-18 14:29N 58°48' E 017°35'4 8.8
2017-Nov-18 14:00N 58°48' E 017°43'510.6
2017-Nov-18 13:30N 58°53' E 017°43'510.8
2017-Nov-18 13:00N 58°59' E 017°43'15 7.0
2017-Nov-18 10:55N 59°13' E 017°37'3 6.9
2017-Nov-18 10:30N 59°16' E 017°35'4 7.2
2017-Nov-18 09:59N 59°16' E 017°42'510.0
2017-Nov-18 09:30N 59°16' E 017°51'510.0
2017-Nov-18 09:01N 59°19' E 017°59'3 5.5
2017-Nov-18 08:30N 59°18' E 018°05'1 2.8
2017-Nov-18 08:00N 59°19' E 018°06'0 0.0
2017-Nov-18 07:30N 59°19' E 018°06'0 0.0
2017-Nov-18 06:58N 59°19' E 018°06'0 0.0
2017-Nov-18 06:28N 59°19' E 018°06'0 0.0
2017-Nov-18 05:58N 59°19' E 018°06'0 0.0
2017-Nov-18 05:28N 59°19' E 018°06'0 0.0
2017-Nov-18 04:56N 59°19' E 018°06'0 0.0
2017-Nov-18 04:26N 59°19' E 018°06'0 0.0
2017-Nov-18 03:58N 59°19' E 018°06'0 0.0
2017-Nov-18 03:28N 59°19' E 018°06'0 0.0
2017-Nov-18 02:58N 59°19' E 018°06'0 0.0
2017-Nov-18 02:28N 59°19' E 018°06'0 0.0
2017-Nov-18 01:58N 59°19' E 018°06'0 0.0
2017-Nov-18 01:28N 59°19' E 018°06'0 0.0
2017-Nov-18 00:58N 59°19' E 018°06'0 0.0
2017-Nov-18 00:28N 59°19' E 018°06'0 0.0
2017-Nov-17 23:58N 59°19' E 018°06'0 0.0
2017-Nov-17 23:28N 59°19' E 018°06'0 0.0
2017-Nov-17 22:56N 59°19' E 018°06'0 0.0
2017-Nov-17 22:28N 59°19' E 018°06'0 0.0
2017-Nov-17 21:58N 59°19' E 018°06'0 0.0
2017-Nov-17 21:28N 59°19' E 018°06'0 0.0
2017-Nov-17 20:58N 59°19' E 018°06'0 0.0
2017-Nov-17 20:26N 59°19' E 018°06'0 0.0
2017-Nov-17 19:56N 59°19' E 018°06'0 0.0
2017-Nov-17 19:25N 59°19' E 018°06'0 0.0
2017-Nov-17 18:56N 59°19' E 018°06'0 0.0
2017-Nov-17 18:26N 59°19' E 018°06'0 0.0
2017-Nov-17 17:50N 59°19' E 018°06'0 0.0
2017-Nov-17 17:26N 59°19' E 018°06'0 0.0
2017-Nov-17 16:56N 59°19' E 018°06'0 0.0
2017-Nov-17 16:26N 59°19' E 018°06'0 0.0
2017-Nov-17 15:58N 59°19' E 018°06'0 0.0
2017-Nov-17 15:28N 59°19' E 018°06'0 0.0
2017-Nov-17 14:58N 59°19' E 018°06'0 0.0
2017-Nov-17 14:28N 59°19' E 018°06'0 0.0
2017-Nov-17 13:58N 59°19' E 018°06'0 0.0
2017-Nov-17 13:26N 59°19' E 018°06'0 0.0
2017-Nov-17 12:58N 59°19' E 018°06'0 0.0
2017-Nov-17 12:28N 59°19' E 018°06'0 0.0
2017-Nov-17 11:58N 59°19' E 018°06'0 0.0
2017-Nov-17 11:28N 59°19' E 018°06'0 0.0
2017-Nov-17 10:58N 59°19' E 018°06'0 0.0
2017-Nov-17 10:28N 59°19' E 018°06'0 0.0
2017-Nov-17 09:58N 59°19' E 018°06'0 0.0
2017-Nov-17 09:28N 59°19' E 018°06'0 0.0
2017-Nov-17 08:58N 59°19' E 018°06'0 0.0
2017-Nov-17 08:28N 59°19' E 018°06'0 0.0
2017-Nov-17 07:56N 59°19' E 018°06'0 0.0
2017-Nov-17 07:28N 59°19' E 018°06'0 0.0
2017-Nov-17 06:58N 59°19' E 018°06'0 0.0
2017-Nov-17 06:28N 59°19' E 018°06'0 0.0
2017-Nov-17 05:58N 59°19' E 018°06'0 0.0
2017-Nov-17 05:28N 59°19' E 018°06'0 0.0
2017-Nov-17 04:58N 59°19' E 018°06'0 0.0
2017-Nov-17 04:28N 59°19' E 018°06'0 0.0
2017-Nov-17 03:58N 59°19' E 018°06'0 0.0
2017-Nov-17 03:28N 59°19' E 018°06'0 0.0
2017-Nov-17 02:58N 59°19' E 018°06'0 0.0
2017-Nov-17 02:25N 59°19' E 018°06'0 0.0
2017-Nov-17 01:58N 59°19' E 018°06'0 0.0
2017-Nov-17 01:28N 59°19' E 018°06'0 0.0
2017-Nov-17 00:56N 59°19' E 018°06'0 0.0
2017-Nov-17 00:28N 59°19' E 018°06'0 0.0
2017-Nov-16 23:58N 59°19' E 018°06'0 0.0
2017-Nov-16 23:26N 59°19' E 018°06'0 0.0
2017-Nov-16 22:58N 59°19' E 018°06'0 0.0
2017-Nov-16 22:28N 59°19' E 018°06'0 0.0
2017-Nov-16 21:58N 59°19' E 018°06'0 0.0
2017-Nov-16 21:28N 59°19' E 018°06'0 0.0
2017-Nov-16 20:56N 59°19' E 018°06'0 0.0
2017-Nov-16 20:28N 59°19' E 018°06'0 0.0
2017-Nov-16 19:55N 59°19' E 018°06'0 0.0
2017-Nov-16 19:26N 59°19' E 018°06'0 0.0
2017-Nov-16 18:56N 59°19' E 018°06'0 0.0
2017-Nov-16 18:25N 59°19' E 018°06'0 0.0
2017-Nov-16 17:55N 59°19' E 018°06'0 0.0
2017-Nov-16 17:26N 59°19' E 018°06'0 0.0
2017-Nov-16 16:55N 59°19' E 018°06'0 0.0
2017-Nov-16 16:25N 59°19' E 018°06'0 0.0
2017-Nov-16 15:55N 59°19' E 018°06'0 0.0
2017-Nov-16 15:28N 59°19' E 018°06'0 0.0
2017-Nov-16 14:58N 59°19' E 018°06'0 0.0
2017-Nov-16 14:28N 59°19' E 018°06'0 0.0
2017-Nov-16 13:49N 59°19' E 018°06'0 0.0
2017-Nov-16 13:20N 59°19' E 018°06'0 0.0
2017-Nov-16 12:56N 59°19' E 018°06'0 0.0
2017-Nov-16 12:25N 59°19' E 018°06'0 0.0
2017-Nov-16 11:55N 59°19' E 018°06'0 0.0
2017-Nov-16 11:20N 59°19' E 018°06'0 0.0
2017-Nov-16 10:50N 59°19' E 018°06'0 0.0
2017-Nov-16 10:26N 59°19' E 018°06'0 0.0
2017-Nov-16 09:49N 59°19' E 018°06'0 0.0
2017-Nov-16 09:07N 59°19' E 018°06'0 0.0
2017-Nov-16 08:55N 59°19' E 018°06'0 0.0
2017-Nov-16 08:26N 59°19' E 018°06'0 0.0
2017-Nov-16 07:49N 59°19' E 018°06'0 0.0
2017-Nov-16 07:25N 59°19' E 018°06'0 0.0
2017-Nov-16 06:55N 59°19' E 018°06'0 0.0
2017-Nov-16 06:25N 59°19' E 018°06'0 0.0
2017-Nov-16 05:55N 59°19' E 018°06'0 0.0
2017-Nov-16 05:19N 59°19' E 018°06'0 0.0
2017-Nov-16 04:55N 59°19' E 018°06'0 0.0
2017-Nov-16 04:26N 59°19' E 018°06'0 0.0
2017-Nov-16 03:55N 59°19' E 018°06'0 0.0
2017-Nov-16 03:25N 59°19' E 018°06'0 0.0
2017-Nov-16 02:49N 59°19' E 018°06'0 0.0
2017-Nov-16 02:25N 59°19' E 018°06'0 0.0
2017-Nov-16 01:56N 59°19' E 018°06'0 0.0
2017-Nov-16 01:26N 59°19' E 018°06'0 0.0
2017-Nov-16 00:49N 59°19' E 018°06'0 0.0
2017-Nov-16 00:26N 59°19' E 018°06'0 0.0
2017-Nov-15 23:56N 59°19' E 018°06'0 0.0
2017-Nov-15 23:25N 59°19' E 018°06'0 0.0
2017-Nov-15 22:56N 59°19' E 018°06'0 0.0
2017-Nov-15 22:25N 59°19' E 018°06'0 0.0
2017-Nov-15 21:55N 59°19' E 018°06'0 0.0
2017-Nov-15 21:25N 59°19' E 018°06'0 0.0
2017-Nov-15 20:55N 59°19' E 018°06'0 0.0
2017-Nov-15 20:25N 59°19' E 018°06'0 0.0
2017-Nov-15 19:55N 59°19' E 018°06'0 0.0
2017-Nov-15 19:25N 59°19' E 018°06'0 0.0
2017-Nov-15 18:55N 59°19' E 018°06'0 0.0
2017-Nov-15 18:25N 59°19' E 018°06'0 0.0
2017-Nov-15 17:49N 59°19' E 018°06'0 0.0
2017-Nov-15 17:25N 59°19' E 018°06'0 0.0
2017-Nov-15 16:49N 59°19' E 018°06'0 0.0
2017-Nov-15 16:26N 59°19' E 018°06'0 0.0
2017-Nov-15 15:56N 59°19' E 018°06'0 0.0
2017-Nov-15 15:25N 59°19' E 018°06'0 0.0
2017-Nov-15 14:55N 59°19' E 018°06'0 0.0
2017-Nov-15 14:26N 59°19' E 018°06'0 0.0
2017-Nov-15 13:55N 59°19' E 018°06'0 0.0
2017-Nov-15 13:25N 59°19' E 018°06'0 0.0
2017-Nov-15 12:56N 59°19' E 018°06'0 0.0
2017-Nov-15 12:19N 59°19' E 018°06'0 0.0
2017-Nov-15 11:49N 59°19' E 018°06'0 0.0
2017-Nov-15 11:26N 59°19' E 018°06'0 0.0
2017-Nov-15 10:55N 59°19' E 018°06'0 0.0
2017-Nov-15 10:25N 59°19' E 018°06'0 0.0
2017-Nov-15 09:55N 59°19' E 018°06'0 0.0
2017-Nov-15 09:26N 59°19' E 018°06'0 0.0
2017-Nov-15 08:55N 59°19' E 018°06'0 0.0
2017-Nov-15 08:28N 59°19' E 018°06'0 0.0
2017-Nov-15 07:58N 59°19' E 018°06'0 0.0
2017-Nov-15 07:28N 59°19' E 018°06'0 0.0
2017-Nov-15 06:58N 59°19' E 018°06'0 0.0
2017-Nov-15 06:28N 59°19' E 018°06'0 0.0
2017-Nov-15 05:58N 59°19' E 018°06'0 0.0
2017-Nov-15 05:28N 59°19' E 018°06'0 0.0
2017-Nov-15 04:58N 59°19' E 018°06'0 0.0
2017-Nov-15 04:28N 59°19' E 018°06'0 0.0
2017-Nov-15 03:58N 59°19' E 018°06'0 0.0
2017-Nov-15 03:28N 59°19' E 018°06'0 0.0
2017-Nov-15 02:55N 59°19' E 018°06'0 0.0
2017-Nov-15 02:28N 59°19' E 018°06'0 0.0
2017-Nov-15 01:55N 59°19' E 018°06'0 0.0
2017-Nov-15 01:28N 59°19' E 018°06'0 0.0
2017-Nov-15 00:58N 59°19' E 018°06'0 0.0
2017-Nov-15 00:28N 59°19' E 018°06'0 0.0
2017-Nov-14 23:58N 59°19' E 018°06'0 0.0
2017-Nov-14 23:28N 59°19' E 018°06'0 0.0
2017-Nov-14 22:58N 59°19' E 018°06'0 0.0
2017-Nov-14 22:28N 59°19' E 018°06'0 0.0
2017-Nov-14 21:58N 59°19' E 018°06'0 0.0
2017-Nov-14 21:28N 59°19' E 018°06'0 0.0
2017-Nov-14 20:58N 59°19' E 018°06'0 0.0
2017-Nov-14 20:28N 59°19' E 018°06'0 0.0
2017-Nov-14 19:58N 59°19' E 018°06'0 0.0
2017-Nov-14 19:25N 59°19' E 018°06'0 0.0
2017-Nov-14 18:55N 59°19' E 018°06'0 0.0
2017-Nov-14 18:25N 59°19' E 018°06'0 0.0
2017-Nov-14 17:55N 59°19' E 018°06'0 0.0
2017-Nov-14 17:25N 59°19' E 018°06'0 0.0
2017-Nov-14 16:49N 59°19' E 018°06'0 0.0
2017-Nov-14 16:26N 59°19' E 018°06'0 0.0
2017-Nov-14 15:58N 59°19' E 018°06'0 0.0
2017-Nov-14 15:26N 59°19' E 018°06'0 0.0
2017-Nov-14 14:58N 59°19' E 018°06'0 0.0
2017-Nov-14 14:28N 59°19' E 018°06'0 0.0
2017-Nov-14 13:58N 59°19' E 018°06'0 0.0
2017-Nov-14 13:28N 59°19' E 018°06'0 0.0
2017-Nov-14 12:58N 59°19' E 018°06'0 0.0
2017-Nov-14 12:28N 59°19' E 018°06'0 0.0
2017-Nov-14 11:58N 59°19' E 018°06'0 0.0
2017-Nov-14 11:28N 59°19' E 018°06'0 0.0
2017-Nov-14 10:58N 59°19' E 018°06'0 0.0
2017-Nov-14 10:28N 59°19' E 018°06'0 0.0
2017-Nov-14 09:58N 59°19' E 018°06'0 0.0
2017-Nov-14 09:28N 59°19' E 018°06'0 0.0
2017-Nov-14 08:58N 59°19' E 018°06'0 0.0
2017-Nov-14 08:28N 59°19' E 018°06'0 0.0
2017-Nov-14 07:58N 59°19' E 018°06'0 0.0
2017-Nov-14 07:28N 59°19' E 018°06'0 0.0
2017-Nov-14 06:58N 59°19' E 018°06'0 0.0
2017-Nov-14 06:25N 59°19' E 018°06'0 0.0
2017-Nov-14 05:58N 59°19' E 018°06'0 0.0
2017-Nov-14 05:28N 59°19' E 018°06'0 0.0
2017-Nov-14 04:58N 59°19' E 018°06'0 0.0
2017-Nov-14 04:28N 59°19' E 018°06'0 0.0
2017-Nov-14 03:58N 59°19' E 018°06'0 0.0
2017-Nov-14 03:28N 59°19' E 018°06'0 0.0
2017-Nov-14 02:58N 59°19' E 018°06'0 0.0
2017-Nov-14 02:28N 59°19' E 018°06'0 0.0
2017-Nov-14 01:58N 59°19' E 018°06'0 0.0
2017-Nov-14 01:25N 59°19' E 018°06'0 0.0
2017-Nov-14 00:58N 59°19' E 018°06'0 0.0
2017-Nov-14 00:28N 59°19' E 018°06'0 0.0
2017-Nov-13 23:58N 59°19' E 018°06'0 0.0
2017-Nov-13 23:28N 59°19' E 018°06'0 0.0
2017-Nov-13 22:58N 59°19' E 018°06'0 0.0
2017-Nov-13 22:28N 59°19' E 018°06'0 0.0
2017-Nov-13 21:58N 59°19' E 018°06'0 0.0
2017-Nov-13 01:58N 59°19' E 018°06'0 0.0
2017-Nov-13 01:28N 59°19' E 018°06'0 0.0
2017-Nov-13 00:55N 59°19' E 018°06'0 0.0
2017-Nov-13 00:28N 59°19' E 018°06'0 0.0
2017-Nov-12 23:58N 59°19' E 018°06'0 0.0
2017-Nov-12 23:28N 59°19' E 018°06'0 0.0
2017-Nov-12 22:58N 59°19' E 018°06'0 0.0
2017-Nov-12 22:28N 59°19' E 018°06'0 0.0
2017-Nov-12 21:52N 59°19' E 018°06'0 0.0
2017-Nov-12 21:28N 59°19' E 018°06'0 0.0
2017-Nov-12 20:58N 59°19' E 018°06'0 0.0
2017-Nov-12 20:28N 59°19' E 018°06'0 0.0
2017-Nov-12 19:55N 59°19' E 018°06'0 0.0
2017-Nov-12 19:19N 59°19' E 018°06'0 0.0
2017-Nov-12 18:55N 59°19' E 018°06'0 0.0
2017-Nov-12 18:25N 59°19' E 018°06'0 0.0
2017-Nov-12 17:55N 59°19' E 018°06'0 0.0
2017-Nov-12 17:19N 59°19' E 018°06'0 0.0
2017-Nov-12 16:37N 59°19' E 018°06'0 0.0
2017-Nov-12 16:25N 59°19' E 018°06'0 0.0
2017-Nov-12 15:55N 59°19' E 018°06'0 0.0
2017-Nov-12 15:25N 59°19' E 018°06'0 0.0
2017-Nov-12 14:58N 59°19' E 018°06'0 0.0
2017-Nov-12 14:28N 59°19' E 018°06'0 0.0
2017-Nov-12 13:58N 59°19' E 018°06'0 0.0
2017-Nov-12 13:22N 59°19' E 018°06'0 0.0
2017-Nov-12 12:58N 59°19' E 018°06'0 0.0
2017-Nov-12 12:28N 59°19' E 018°06'0 0.0
2017-Nov-12 11:58N 59°19' E 018°06'0 0.0
2017-Nov-12 11:28N 59°19' E 018°06'0 0.0
2017-Nov-12 10:55N 59°19' E 018°06'0 0.0
2017-Nov-12 10:28N 59°19' E 018°06'0 0.0
2017-Nov-12 09:58N 59°19' E 018°06'0 0.0
2017-Nov-12 09:28N 59°19' E 018°06'0 0.0
2017-Nov-12 08:58N 59°19' E 018°06'0 0.0
2017-Nov-12 08:25N 59°19' E 018°06'0 0.0
2017-Nov-12 07:55N 59°19' E 018°06'0 0.0
2017-Nov-12 07:28N 59°19' E 018°06'0 0.0
2017-Nov-12 06:58N 59°19' E 018°06'0 0.0
2017-Nov-12 06:28N 59°19' E 018°06'0 0.0
2017-Nov-12 05:58N 59°19' E 018°06'0 0.0
2017-Nov-12 05:28N 59°19' E 018°06'0 0.0
2017-Nov-12 04:58N 59°19' E 018°06'0 0.0
2017-Nov-12 04:28N 59°19' E 018°06'0 0.0
2017-Nov-12 03:58N 59°19' E 018°06'0 0.0
2017-Nov-12 03:28N 59°19' E 018°06'0 0.0
2017-Nov-12 02:58N 59°19' E 018°06'0 0.0
2017-Nov-12 02:28N 59°19' E 018°06'0 0.0
2017-Nov-12 01:58N 59°19' E 018°06'0 0.0
2017-Nov-12 01:28N 59°19' E 018°06'0 0.0
2017-Nov-12 00:58N 59°19' E 018°06'0 0.0
2017-Nov-12 00:28N 59°19' E 018°06'0 0.0
2017-Nov-11 23:58N 59°19' E 018°06'0 0.0
2017-Nov-11 23:25N 59°19' E 018°06'0 0.0
2017-Nov-11 22:55N 59°19' E 018°06'0 0.0
2017-Nov-11 22:28N 59°19' E 018°06'0 0.0
2017-Nov-11 21:58N 59°19' E 018°06'0 0.0
2017-Nov-11 21:28N 59°19' E 018°06'0 0.0
2017-Nov-11 20:55N 59°19' E 018°06'0 0.0
2017-Nov-11 20:28N 59°19' E 018°06'0 0.0
2017-Nov-11 19:58N 59°19' E 018°06'0 0.0
2017-Nov-11 19:28N 59°19' E 018°06'0 0.0
2017-Nov-11 18:55N 59°19' E 018°06'0 0.0
2017-Nov-11 18:19N 59°19' E 018°06'0 0.0
2017-Nov-11 17:55N 59°19' E 018°06'0 0.0
2017-Nov-11 17:25N 59°19' E 018°06'0 0.0
2017-Nov-11 16:49N 59°19' E 018°06'0 0.0
2017-Nov-11 16:19N 59°19' E 018°06'0 0.0
2017-Nov-11 15:55N 59°19' E 018°06'0 0.0
2017-Nov-11 15:19N 59°19' E 018°06'0 0.0
2017-Nov-11 14:58N 59°19' E 018°06'0 0.0
2017-Nov-11 14:28N 59°19' E 018°06'0 0.0
2017-Nov-11 13:58N 59°19' E 018°06'0 0.0
2017-Nov-11 13:28N 59°19' E 018°06'0 0.0
2017-Nov-11 12:55N 59°19' E 018°06'0 0.0
2017-Nov-11 12:28N 59°19' E 018°06'0 0.0
2017-Nov-11 11:58N 59°19' E 018°06'0 0.0
2017-Nov-11 11:28N 59°19' E 018°06'0 0.0
2017-Nov-11 10:58N 59°19' E 018°06'0 0.0
2017-Nov-11 10:28N 59°19' E 018°06'0 0.0
2017-Nov-11 09:55N 59°19' E 018°06'0 0.0
2017-Nov-11 09:28N 59°19' E 018°06'0 0.0
2017-Nov-11 08:58N 59°19' E 018°06'0 0.0
2017-Nov-11 08:28N 59°19' E 018°06'0 0.0
2017-Nov-11 07:58N 59°19' E 018°06'0 0.0
2017-Nov-11 07:28N 59°19' E 018°06'0 0.0
2017-Nov-11 06:55N 59°19' E 018°06'0 0.0
2017-Nov-11 06:28N 59°19' E 018°06'0 0.0
2017-Nov-11 05:58N 59°19' E 018°06'0 0.0
2017-Nov-11 05:28N 59°19' E 018°06'0 0.0
2017-Nov-11 04:58N 59°19' E 018°06'0 0.0
2017-Nov-11 04:28N 59°19' E 018°06'0 0.0
2017-Nov-11 03:58N 59°19' E 018°06'0 0.0
2017-Nov-11 03:25N 59°19' E 018°06'0 0.0
2017-Nov-11 02:55N 59°19' E 018°06'0 0.0
2017-Nov-11 02:28N 59°19' E 018°06'0 0.0
2017-Nov-11 01:58N 59°19' E 018°06'0 0.0
2017-Nov-11 01:28N 59°19' E 018°06'0 0.0
2017-Nov-11 00:58N 59°19' E 018°06'0 0.0
2017-Nov-11 00:28N 59°19' E 018°06'0 0.0
2017-Nov-10 23:58N 59°19' E 018°06'0 0.0
2017-Nov-10 23:28N 59°19' E 018°06'0 0.0
2017-Nov-10 22:58N 59°19' E 018°06'0 0.0
2017-Nov-10 22:28N 59°19' E 018°06'0 0.0
2017-Nov-10 21:58N 59°19' E 018°06'0 0.0
2017-Nov-10 21:28N 59°19' E 018°06'0 0.0
2017-Nov-10 20:58N 59°19' E 018°06'0 0.0
2017-Nov-10 20:25N 59°19' E 018°06'0 0.0
2017-Nov-10 19:55N 59°19' E 018°06'0 0.0
2017-Nov-10 19:25N 59°19' E 018°06'0 0.0
2017-Nov-10 18:55N 59°19' E 018°06'0 0.0
2017-Nov-10 18:25N 59°19' E 018°06'0 0.0
2017-Nov-10 17:55N 59°19' E 018°06'0 0.0
2017-Nov-10 17:25N 59°19' E 018°06'0 0.0
2017-Nov-10 16:55N 59°19' E 018°06'0 0.0
2017-Nov-10 16:01N 59°19' E 018°06'0 0.0
2017-Nov-10 15:55N 59°19' E 018°06'0 0.0
2017-Nov-10 15:25N 59°19' E 018°06'0 0.0
2017-Nov-10 14:58N 59°19' E 018°06'0 0.0
2017-Nov-10 14:28N 59°19' E 018°06'0 0.0
2017-Nov-10 13:58N 59°19' E 018°06'0 0.0
2017-Nov-10 13:28N 59°19' E 018°06'0 0.0
2017-Nov-10 12:58N 59°19' E 018°06'0 0.0
2017-Nov-10 12:25N 59°19' E 018°06'0 0.0
2017-Nov-10 11:58N 59°19' E 018°06'0 0.0
2017-Nov-10 11:28N 59°19' E 018°06'0 0.0
2017-Nov-10 10:58N 59°19' E 018°06'0 0.0
2017-Nov-10 10:25N 59°19' E 018°06'0 0.0
2017-Nov-10 09:58N 59°19' E 018°06'0 0.0
2017-Nov-10 09:28N 59°19' E 018°06'0 0.0
2017-Nov-10 08:58N 59°19' E 018°06'0 0.0
2017-Nov-10 08:28N 59°19' E 018°06'0 0.0
2017-Nov-10 07:55N 59°19' E 018°06'0 0.0
2017-Nov-10 07:28N 59°19' E 018°06'0 0.0
2017-Nov-10 06:58N 59°19' E 018°06'0 0.0
2017-Nov-10 06:28N 59°19' E 018°06'0 0.0
2017-Nov-10 05:58N 59°19' E 018°06'0 0.0
2017-Nov-10 05:28N 59°19' E 018°06'0 0.0
2017-Nov-10 04:58N 59°19' E 018°06'0 0.0
2017-Nov-10 04:28N 59°19' E 018°06'0 0.0
2017-Nov-10 03:58N 59°19' E 018°06'0 0.0
2017-Nov-10 03:28N 59°19' E 018°06'0 0.0
2017-Nov-10 02:58N 59°19' E 018°06'0 0.0
2017-Nov-10 02:28N 59°19' E 018°06'0 0.0
2017-Nov-10 01:58N 59°19' E 018°06'0 0.0
2017-Nov-10 01:28N 59°19' E 018°06'0 0.0
2017-Nov-10 00:58N 59°19' E 018°06'0 0.0
2017-Nov-10 00:28N 59°19' E 018°06'0 0.0
2017-Nov-09 23:58N 59°19' E 018°06'0 0.0
2017-Nov-09 23:28N 59°19' E 018°06'0 0.0
2017-Nov-09 22:58N 59°19' E 018°06'0 0.0
2017-Nov-09 22:28N 59°19' E 018°06'0 0.0
2017-Nov-09 21:58N 59°19' E 018°06'0 0.0
2017-Nov-09 21:28N 59°19' E 018°06'0 0.0
2017-Nov-09 20:52N 59°19' E 018°06'0 0.0
2017-Nov-09 20:30N 59°19' E 018°06'1 2.2
2017-Nov-09 20:00N 59°18' E 018°05'2 3.9
2017-Nov-09 19:30N 59°19' E 018°02'4 7.9
2017-Nov-09 19:00N 59°18' E 017°54'510.0
2017-Nov-09 18:31N 59°16' E 017°45'5 9.4
2017-Nov-09 17:59N 59°17' E 017°36'510.7
2017-Nov-09 17:30N 59°21' E 017°29'510.5
2017-Nov-09 17:00N 59°26' E 017°24'510.2
2017-Nov-09 16:30N 59°28' E 017°15'4 8.6
2017-Nov-09 16:00N 59°31' E 017°10'510.1
2017-Nov-09 15:29N 59°32' E 016°59'  

Dump ship's entire track history